首页
METAR-TAF:

METAR-TAF

机场 :

奥尔巴尼, 紐約州, 美国

纬度: 42-44-53N, 经度: 073-48-06W, 海拔: 87米

当前天气观测

该预报发布于17分钟前的09:51 UTC
风速3节,风向西
温度 8°C
湿度 71%
气压 1023 hPa
能見度: 16.1公里
多云层高于8000英尺

METAR: KALB 010951Z 28003KT 10SM BKN080 08/03 A3021 RMK AO2 SLP230 T00830028

时间: 06:08 (10:08 UTC)

预报

该预报发布于4小时和31分钟前的05:37 UTC
预报有效从01日的 06点(UTC)到 02日的 06点(UTC)
风速6节,风向西转西北
能見度: 10公里
多云层高于7000英尺
从 01日的 0800点(UTC)
风速3节,风向多变
能見度: 10公里
少量云层高于7000英尺
散云层高于25000英尺
从 01日的 1400点(UTC)
风速12节,风向西转西北,有时为18节阵风
能見度: 10公里
多云层高于7000英尺
从 01日的 1900点(UTC)
风速15节,风向西北,有时为23节阵风
能見度: 10公里
多云层高于6000英尺
多云层高于12000英尺
从 02日的 0100点(UTC)
风速5节,风向西
能見度: 10公里
散云层高于6000英尺
多云层高于10000英尺

TAF: KALB 010537Z 0106/0206 29006KT P6SM BKN070 FM010800 VRB03KT P6SM FEW070 SCT250 FM011400 30012G18KT P6SM BKN070 FM011900 31015G23KT P6SM BKN060 BKN120 FM020100 28005KT P6SM SCT060 BKN100

超过4000个机场的气象观测和天气预报(METAR&TAF报告)。

可查询的气象台以黄色和红色小点在地图上表示。

将鼠标移到小点上方,可查看气象台名称。

然后点击查看天气观测和预报。

如需切换地图:点击带黑十字的绿色按钮放大地图;点击带横线的绿色按钮缩小地图;或者点击绿色箭头查看邻近地区的地图。


METAR-TAF: